createdAt,value
2018-11-13T00:02:18.589Z,60.77
2018-11-13T00:04:46.580Z,64.13
2018-11-13T00:07:14.677Z,65.20
2018-11-13T00:09:42.770Z,73.50
2018-11-13T00:12:10.817Z,64.40
2018-11-13T00:14:38.856Z,65.07
2018-11-13T00:17:06.884Z,71.00
2018-11-13T00:19:34.947Z,73.30
2018-11-13T00:22:02.958Z,74.60
2018-11-13T00:24:30.966Z,71.67
2018-11-13T00:26:59.297Z,76.50
2018-11-13T00:29:27.392Z,65.00
2018-11-13T00:31:55.337Z,70.10
2018-11-13T00:34:23.330Z,65.57
2018-11-13T00:36:51.414Z,62.63
2018-11-13T00:39:19.946Z,54.07
2018-11-13T00:41:47.537Z,61.67
2018-11-13T00:44:15.677Z,61.90
2018-11-13T00:46:43.821Z,54.37
2018-11-13T00:49:11.801Z,61.97
2018-11-13T00:51:39.965Z,70.40
2018-11-13T00:54:07.960Z,65.47
2018-11-13T00:56:36.091Z,77.77
2018-11-13T00:59:04.328Z,73.67
2018-11-13T01:01:32.386Z,72.37
2018-11-13T01:04:00.426Z,64.70
2018-11-13T01:06:28.565Z,75.97
2018-11-13T01:08:56.553Z,71.63
2018-11-13T01:11:24.636Z,70.47
2018-11-13T01:13:52.809Z,71.10
2018-11-13T01:16:20.796Z,76.83
2018-11-13T01:18:48.842Z,77.57
2018-11-13T01:21:17.009Z,80.87
2018-11-13T01:23:45.043Z,76.27
2018-11-13T01:26:13.089Z,78.83
2018-11-13T01:28:41.134Z,81.70
2018-11-13T01:31:09.104Z,83.47
2018-11-13T01:33:37.428Z,87.60
2018-11-13T01:36:05.729Z,76.13
2018-11-13T01:38:33.753Z,97.20
2018-11-13T01:41:01.925Z,86.80
2018-11-13T01:43:29.997Z,98.83
2018-11-13T01:45:58.008Z,82.80
2018-11-13T01:48:26.005Z,88.93
2018-11-13T01:50:54.014Z,84.10
2018-11-13T01:53:22.099Z,82.40
2018-11-13T01:55:50.081Z,80.40
2018-11-13T01:58:18.132Z,91.90
2018-11-13T02:00:46.068Z,77.13
2018-11-13T02:03:14.052Z,91.60
2018-11-13T02:05:42.029Z,92.43
2018-11-13T02:08:10.116Z,91.67
2018-11-13T02:10:38.123Z,105.87
2018-11-13T02:13:06.541Z,103.23
2018-11-13T02:15:34.642Z,111.10
2018-11-13T02:18:02.630Z,106.53
2018-11-13T02:20:30.636Z,123.50
2018-11-13T02:22:58.758Z,104.23
2018-11-13T02:25:26.825Z,103.03
2018-11-13T02:27:54.827Z,97.83
2018-11-13T02:30:23.593Z,92.87
2018-11-13T02:32:51.802Z,92.17
2018-11-13T02:35:19.958Z,105.93
2018-11-13T02:37:47.937Z,109.97
2018-11-13T02:40:16.229Z,115.97
2018-11-13T02:42:44.299Z,109.83
2018-11-13T02:45:15.425Z,96.83
2018-11-13T02:47:43.581Z,98.97
2018-11-13T02:50:13.855Z,107.97
2018-11-13T02:52:42.063Z,104.00
2018-11-13T02:55:10.790Z,97.23
2018-11-13T02:57:38.855Z,112.80
2018-11-13T03:00:09.786Z,100.57
2018-11-13T03:02:37.873Z,121.67
2018-11-13T03:05:07.116Z,116.53
2018-11-13T03:07:35.149Z,113.40
2018-11-13T03:10:03.686Z,111.57
2018-11-13T03:12:31.704Z,124.40
2018-11-13T03:14:59.798Z,97.57
2018-11-13T03:17:28.062Z,109.07
2018-11-13T03:19:56.577Z,100.57
2018-11-13T03:22:24.587Z,113.67
2018-11-13T03:24:53.064Z,102.17
2018-11-13T03:27:21.096Z,95.33
2018-11-13T03:29:49.061Z,91.10
2018-11-13T03:32:17.093Z,110.10
2018-11-13T03:34:45.073Z,88.97
2018-11-13T03:37:13.100Z,107.07
2018-11-13T03:39:41.144Z,92.70
2018-11-13T03:42:09.165Z,94.00
2018-11-13T03:44:37.292Z,98.17
2018-11-13T03:47:05.633Z,97.80
2018-11-13T03:49:33.616Z,116.47
2018-11-13T03:52:01.656Z,114.80
2018-11-13T03:54:29.633Z,127.30
2018-11-13T03:56:57.688Z,107.70
2018-11-13T03:59:25.687Z,128.67
2018-11-13T04:01:53.692Z,112.93
2018-11-13T04:04:21.704Z,98.83
2018-11-13T04:06:49.712Z,108.63
2018-11-13T04:09:17.826Z,109.83
2018-11-13T04:11:45.920Z,102.37
2018-11-13T04:14:13.945Z,106.70
2018-11-13T04:16:42.012Z,109.27
2018-11-13T04:19:10.048Z,121.77
2018-11-13T04:21:38.427Z,123.03
2018-11-13T04:24:06.839Z,112.83
2018-11-13T04:26:35.145Z,124.30
2018-11-13T04:29:03.184Z,115.83
2018-11-13T04:31:31.213Z,110.80
2018-11-13T04:33:59.217Z,105.50
2018-11-13T04:36:27.252Z,107.40
2018-11-13T04:38:55.342Z,113.90
2018-11-13T04:41:23.368Z,104.97
2018-11-13T04:43:51.372Z,115.40
2018-11-13T04:46:19.500Z,128.87
2018-11-13T04:48:47.603Z,117.00
2018-11-13T04:51:15.589Z,127.13
2018-11-13T04:53:43.607Z,108.47
2018-11-13T04:56:11.609Z,103.27
2018-11-13T04:58:39.697Z,102.83
2018-11-13T05:01:07.696Z,114.50
2018-11-13T05:03:35.793Z,111.03
2018-11-13T05:06:03.823Z,95.07
2018-11-13T05:08:31.837Z,89.80
2018-11-13T05:10:59.845Z,102.07
2018-11-13T05:13:27.945Z,102.87
2018-11-13T05:15:56.268Z,99.67
2018-11-13T05:18:24.349Z,100.10
2018-11-13T05:20:52.367Z,98.47
2018-11-13T05:23:20.403Z,97.63
2018-11-13T05:25:48.420Z,97.87
2018-11-13T05:28:16.469Z,91.60
2018-11-13T05:30:44.588Z,91.60
2018-11-13T05:33:12.569Z,102.20
2018-11-13T05:35:40.572Z,106.77
2018-11-13T05:38:08.617Z,124.30
2018-11-13T05:40:36.643Z,96.40
2018-11-13T05:43:04.677Z,108.80
2018-11-13T05:45:32.737Z,117.53
2018-11-13T05:48:00.806Z,96.07
2018-11-13T05:50:28.876Z,95.70
2018-11-13T05:52:56.896Z,101.17
2018-11-13T05:55:25.347Z,83.63
2018-11-13T05:57:53.356Z,86.53
2018-11-13T06:00:26.572Z,94.80
2018-11-13T06:02:54.849Z,88.07
2018-11-13T06:05:24.029Z,81.83
2018-11-13T06:07:52.080Z,79.37
2018-11-13T06:10:20.284Z,88.73
2018-11-13T06:12:48.534Z,102.57
2018-11-13T06:15:16.561Z,98.67
2018-11-13T06:17:44.724Z,106.10
2018-11-13T06:20:14.103Z,117.37
2018-11-13T06:22:42.328Z,105.37
2018-11-13T06:25:12.230Z,108.83
2018-11-13T06:27:41.322Z,117.17
2018-11-13T06:30:13.457Z,110.13
2018-11-13T06:32:41.549Z,117.47
2018-11-13T06:35:09.573Z,114.07
2018-11-13T06:37:37.980Z,111.20
2018-11-13T06:40:06.689Z,131.27
2018-11-13T06:42:34.765Z,140.63
2018-11-13T06:45:02.800Z,122.27
2018-11-13T06:47:30.866Z,143.57
2018-11-13T06:49:59.080Z,120.43
2018-11-13T06:52:27.098Z,133.43
2018-11-13T06:55:07.821Z,164.80
2018-11-13T06:57:35.869Z,137.23
2018-11-13T07:00:06.002Z,152.32
2018-11-13T07:02:34.028Z,141.77
2018-11-13T07:05:02.072Z,127.40
2018-11-13T07:07:30.078Z,144.20
2018-11-13T07:09:58.076Z,147.77
2018-11-13T07:12:26.194Z,133.67
2018-11-13T07:14:54.292Z,135.23
2018-11-13T07:17:22.375Z,116.77
2018-11-13T07:19:50.370Z,142.33
2018-11-13T07:22:18.516Z,116.20
2018-11-13T07:24:46.497Z,134.23
2018-11-13T07:27:14.586Z,135.00
2018-11-13T07:29:42.609Z,138.50
2018-11-13T07:32:10.633Z,127.90
2018-11-13T07:34:38.609Z,115.23
2018-11-13T07:37:06.666Z,128.73
2018-11-13T07:39:34.696Z,120.23
2018-11-13T07:42:02.693Z,119.90
2018-11-13T07:44:30.729Z,118.33
2018-11-13T07:46:58.782Z,111.87
2018-11-13T07:49:26.789Z,106.87
2018-11-13T07:51:54.792Z,109.57
2018-11-13T07:54:22.924Z,107.80
2018-11-13T07:56:51.073Z,115.23
2018-11-13T07:59:19.140Z,108.77
2018-11-13T08:01:47.201Z,109.37
2018-11-13T08:04:15.257Z,91.23
2018-11-13T08:06:43.334Z,107.63
2018-11-13T08:09:11.281Z,97.90
2018-11-13T08:11:39.293Z,94.37
2018-11-13T08:14:07.285Z,105.33
2018-11-13T08:16:35.314Z,88.57
2018-11-13T08:19:03.273Z,95.03
2018-11-13T08:21:31.573Z,85.63
2018-11-13T08:23:59.857Z,81.20
2018-11-13T08:26:27.881Z,92.40
2018-11-13T08:28:55.951Z,84.97
2018-11-13T08:31:24.137Z,81.57
2018-11-13T08:33:52.307Z,87.47
2018-11-13T08:36:20.342Z,65.90
2018-11-13T08:38:48.335Z,69.83
2018-11-13T08:41:16.356Z,63.20
2018-11-13T08:43:44.386Z,61.70
2018-11-13T08:46:12.317Z,53.07
2018-11-13T08:48:40.353Z,54.30
2018-11-13T08:51:08.349Z,51.30
2018-11-13T08:53:36.357Z,41.57
2018-11-13T08:56:04.457Z,36.90
2018-11-13T08:58:32.607Z,37.70
2018-11-13T09:01:01.423Z,36.87
2018-11-13T09:03:29.497Z,35.43
2018-11-13T09:05:57.503Z,36.90
2018-11-13T09:08:25.517Z,36.33
2018-11-13T09:10:53.516Z,38.97
2018-11-13T09:13:21.553Z,37.00
2018-11-13T09:15:49.613Z,39.80
2018-11-13T09:18:17.617Z,33.10
2018-11-13T09:20:45.828Z,33.20
2018-11-13T09:23:13.869Z,44.50
2018-11-13T09:25:41.896Z,36.43
2018-11-13T09:28:09.981Z,45.30
2018-11-13T09:30:38.357Z,32.10
2018-11-13T09:33:06.235Z,38.87
2018-11-13T09:35:34.177Z,30.67
2018-11-13T09:38:02.213Z,33.67
2018-11-13T09:40:30.208Z,28.03
2018-11-13T09:42:58.224Z,29.40
2018-11-13T09:45:26.248Z,27.73
2018-11-13T09:47:54.393Z,37.07
2018-11-13T09:50:22.376Z,26.13
2018-11-13T09:52:51.680Z,25.40
2018-11-13T09:55:21.025Z,29.93
2018-11-13T09:57:49.197Z,22.47
2018-11-13T10:00:21.368Z,26.43
2018-11-13T10:02:51.111Z,29.23
2018-11-13T10:05:19.606Z,20.03
2018-11-13T10:07:47.821Z,21.63
2018-11-13T10:10:15.896Z,32.43
2018-11-13T10:12:43.837Z,27.17
2018-11-13T10:15:14.402Z,18.77
2018-11-13T10:17:42.713Z,20.97
2018-11-13T10:20:12.302Z,20.30
2018-11-13T10:22:40.821Z,18.47
2018-11-13T10:25:09.645Z,24.80
2018-11-13T10:27:37.728Z,17.90
2018-11-13T10:30:08.255Z,16.60
2018-11-13T10:32:36.237Z,14.40
2018-11-13T10:35:04.418Z,16.13
2018-11-13T10:37:32.438Z,18.73
2018-11-13T10:40:00.443Z,13.27
2018-11-13T10:42:28.661Z,14.00
2018-11-13T10:44:56.683Z,23.87
2018-11-13T10:47:24.653Z,17.03
2018-11-13T10:49:52.657Z,12.10
2018-11-13T10:52:20.657Z,11.13
2018-11-13T10:54:48.645Z,13.30
2018-11-13T10:57:16.637Z,13.93
2018-11-13T10:59:44.637Z,13.50
2018-11-13T11:02:18.190Z,13.25
2018-11-13T11:04:49.139Z,16.00
2018-11-13T11:07:17.141Z,18.03
2018-11-13T11:09:45.466Z,13.57
2018-11-13T11:12:13.858Z,14.67
2018-11-13T11:14:42.101Z,17.00
2018-11-13T11:17:10.573Z,12.37
2018-11-13T11:19:38.585Z,13.80
2018-11-13T11:22:06.768Z,16.90
2018-11-13T11:24:34.812Z,11.40
2018-11-13T11:27:02.829Z,9.33
2018-11-13T11:29:30.842Z,11.00
2018-11-13T11:31:58.892Z,12.30
2018-11-13T11:34:27.129Z,8.50
2018-11-13T11:36:55.269Z,11.20
2018-11-13T11:39:23.524Z,11.70
2018-11-13T11:41:51.664Z,8.53
2018-11-13T11:44:19.708Z,7.60
2018-11-13T11:46:47.686Z,9.50
2018-11-13T11:49:15.711Z,10.63
2018-11-13T11:51:43.957Z,8.43
2018-11-13T11:54:12.038Z,9.27
2018-11-13T11:56:40.045Z,14.13
2018-11-13T11:59:08.044Z,8.60
2018-11-13T12:01:36.024Z,10.20
2018-11-13T12:04:04.129Z,7.23
2018-11-13T12:06:32.125Z,7.30
2018-11-13T12:09:00.100Z,9.70
2018-11-13T12:11:28.089Z,6.63
2018-11-13T12:13:56.064Z,6.67
2018-11-13T12:16:24.056Z,7.00
2018-11-13T12:18:52.058Z,14.73
2018-11-13T12:21:20.094Z,10.00
2018-11-13T12:23:48.101Z,8.50
2018-11-13T12:26:16.104Z,8.87
2018-11-13T12:28:44.119Z,8.23
2018-11-13T12:31:12.219Z,7.90
2018-11-13T12:33:40.228Z,5.03
2018-11-13T12:36:08.222Z,9.60
2018-11-13T12:38:36.304Z,14.30
2018-11-13T12:41:04.456Z,10.67
2018-11-13T12:43:33.569Z,4.97
2018-11-13T12:46:01.640Z,4.30
2018-11-13T12:48:29.632Z,4.90
2018-11-13T12:51:05.144Z,9.93
2018-11-13T12:53:33.980Z,6.73
2018-11-13T12:56:02.031Z,8.60
2018-11-13T12:58:31.012Z,5.97
2018-11-13T13:00:58.999Z,8.77
2018-11-13T13:03:27.025Z,5.40
2018-11-13T13:05:55.224Z,5.70
2018-11-13T13:08:23.261Z,4.30
2018-11-13T13:10:51.370Z,6.53
2018-11-13T13:13:19.353Z,4.03
2018-11-13T13:15:47.333Z,11.33
2018-11-13T13:18:15.329Z,9.33
2018-11-13T13:20:43.326Z,23.83
2018-11-13T13:23:11.313Z,10.13
2018-11-13T13:25:39.304Z,9.00
2018-11-13T13:28:07.378Z,7.53
2018-11-13T13:30:35.382Z,5.10
2018-11-13T13:33:03.381Z,10.33
2018-11-13T13:35:46.601Z,8.33
2018-11-13T13:38:14.705Z,6.43
2018-11-13T13:40:43.801Z,3.70
2018-11-13T13:43:12.649Z,11.03
2018-11-13T13:45:41.461Z,11.47
2018-11-13T13:48:09.501Z,8.40
2018-11-13T13:50:37.885Z,7.93
2018-11-13T13:53:06.381Z,4.20
2018-11-13T13:55:34.375Z,5.07
2018-11-13T13:58:02.384Z,6.23
2018-11-13T14:00:30.690Z,8.03
2018-11-13T14:02:58.644Z,7.00
2018-11-13T14:05:26.691Z,5.67
2018-11-13T14:07:54.701Z,8.83
2018-11-13T14:10:22.949Z,10.93
2018-11-13T14:12:50.963Z,10.60
2018-11-13T14:15:19.210Z,9.70
2018-11-13T14:17:47.381Z,5.60
2018-11-13T14:20:17.781Z,5.37
2018-11-13T14:22:45.777Z,5.80
2018-11-13T14:25:14.404Z,6.73
2018-11-13T14:27:42.493Z,6.80
2018-11-13T14:30:19.153Z,7.27
2018-11-13T14:32:47.930Z,9.67
2018-11-13T14:35:16.333Z,14.10
2018-11-13T14:37:44.413Z,5.13
2018-11-13T14:40:16.041Z,13.60
2018-11-13T14:42:44.664Z,6.53
2018-11-13T14:45:12.678Z,7.87
2018-11-13T14:47:41.791Z,14.27
2018-11-13T14:50:11.950Z,12.10
2018-11-13T14:52:40.081Z,5.17
2018-11-13T14:55:10.659Z,8.80
2018-11-13T14:57:38.729Z,3.70
2018-11-13T15:00:11.145Z,6.43
2018-11-13T15:02:39.440Z,7.17
2018-11-13T15:05:08.727Z,5.30
2018-11-13T15:07:36.707Z,5.30
2018-11-13T15:10:06.481Z,6.97
2018-11-13T15:12:34.477Z,5.70
2018-11-13T15:15:02.518Z,9.47
2018-11-13T15:17:30.445Z,6.27
2018-11-13T15:19:58.412Z,7.67
2018-11-13T15:22:26.519Z,6.30
2018-11-13T15:24:54.393Z,8.20
2018-11-13T15:27:22.597Z,3.57
2018-11-13T15:29:50.648Z,3.83
2018-11-13T15:32:18.633Z,8.63
2018-11-13T15:34:46.614Z,8.90
2018-11-13T15:37:15.294Z,8.17
2018-11-13T15:39:43.284Z,16.33
2018-11-13T15:42:11.472Z,7.70
2018-11-13T15:44:39.608Z,9.23
2018-11-13T15:47:07.544Z,9.13
2018-11-13T15:49:35.533Z,7.53
2018-11-13T15:52:03.690Z,8.80
2018-11-13T15:54:31.590Z,6.80
2018-11-13T15:56:59.598Z,3.87
2018-11-13T15:59:27.624Z,8.80
2018-11-13T16:01:56.693Z,11.73
2018-11-13T16:04:24.694Z,11.40
2018-11-13T16:06:53.752Z,17.60
2018-11-13T16:09:21.752Z,4.03
2018-11-13T16:11:49.753Z,10.80
2018-11-13T16:14:17.768Z,12.33
2018-11-13T16:16:45.757Z,8.00
2018-11-13T16:19:13.753Z,6.33
2018-11-13T16:21:41.798Z,8.23
2018-11-13T16:24:09.762Z,4.07
2018-11-13T16:26:37.782Z,10.00
2018-11-13T16:29:05.957Z,6.10
2018-11-13T16:31:33.997Z,7.40
2018-11-13T16:34:01.984Z,3.13
2018-11-13T16:36:30.068Z,3.67
2018-11-13T16:38:58.117Z,9.60
2018-11-13T16:41:26.445Z,9.80
2018-11-13T16:43:54.457Z,14.47
2018-11-13T16:46:22.500Z,6.73
2018-11-13T16:48:50.592Z,7.80
2018-11-13T16:51:18.736Z,10.53
2018-11-13T16:53:52.292Z,10.67
2018-11-13T16:56:20.216Z,2.90
2018-11-13T16:58:48.207Z,4.83
2018-11-13T17:01:16.403Z,5.43
2018-11-13T17:03:44.376Z,3.30
2018-11-13T17:06:12.380Z,8.20
2018-11-13T17:08:40.317Z,9.13
2018-11-13T17:11:08.311Z,8.87
2018-11-13T17:13:36.322Z,4.27
2018-11-13T17:16:10.054Z,7.57
2018-11-13T17:18:38.125Z,6.00
2018-11-13T17:21:06.116Z,8.40
2018-11-13T17:23:34.138Z,8.00
2018-11-13T17:26:02.297Z,4.73
2018-11-13T17:28:30.185Z,14.53
2018-11-13T17:30:58.202Z,3.90
2018-11-13T17:33:26.197Z,7.43
2018-11-13T17:35:54.169Z,5.83
2018-11-13T17:38:22.157Z,10.13
2018-11-13T17:40:50.137Z,8.00
2018-11-13T17:43:18.141Z,10.40
2018-11-13T17:45:46.127Z,7.30
2018-11-13T17:48:14.196Z,12.83
2018-11-13T17:50:43.252Z,6.80
2018-11-13T17:53:11.684Z,15.73
2018-11-13T17:55:39.980Z,24.03
2018-11-13T17:58:11.418Z,8.30
2018-11-13T18:00:42.822Z,40.33
2018-11-13T18:03:11.983Z,4.80
2018-11-13T18:05:40.537Z,10.73
2018-11-13T18:08:09.257Z,12.60
2018-11-13T18:10:38.374Z,12.30
2018-11-13T18:13:06.905Z,4.20
2018-11-13T18:15:35.004Z,4.67
2018-11-13T18:18:03.352Z,8.00
2018-11-13T18:20:32.682Z,4.80
2018-11-13T18:23:00.688Z,11.63
2018-11-13T18:25:28.957Z,7.87
2018-11-13T18:27:58.047Z,14.80
2018-11-13T18:30:27.185Z,10.37
2018-11-13T18:32:55.681Z,7.80
2018-11-13T18:35:24.982Z,7.70
2018-11-13T18:37:53.738Z,9.23
2018-11-13T18:40:22.345Z,12.53
2018-11-13T18:42:51.121Z,24.70
2018-11-13T18:45:21.757Z,11.47
2018-11-13T18:47:49.795Z,7.90
2018-11-13T18:50:20.118Z,14.80
2018-11-13T18:52:48.104Z,20.00
2018-11-13T18:55:16.469Z,13.77
2018-11-13T18:57:44.776Z,16.57
2018-11-13T19:00:14.892Z,19.03
2018-11-13T19:02:42.965Z,15.30
2018-11-13T19:05:11.856Z,10.57
2018-11-13T19:07:40.200Z,8.17
2018-11-13T19:10:14.233Z,16.37
2018-11-13T19:12:42.373Z,15.47
2018-11-13T19:15:11.768Z,9.33
2018-11-13T19:17:39.845Z,11.80
2018-11-13T19:20:10.841Z,21.30
2018-11-13T19:22:38.890Z,14.53
2018-11-13T19:25:07.606Z,9.87
2018-11-13T19:27:35.634Z,19.50
2018-11-13T19:30:04.781Z,21.00
2018-11-13T19:32:32.665Z,12.60
2018-11-13T19:35:00.697Z,9.23
2018-11-13T19:37:28.683Z,11.27
2018-11-13T19:39:56.757Z,21.73
2018-11-13T19:42:24.701Z,9.10
2018-11-13T19:44:52.860Z,8.40
2018-11-13T19:47:20.853Z,11.20
2018-11-13T19:49:49.092Z,12.33
2018-11-13T19:52:17.020Z,16.03
2018-11-13T19:54:45.009Z,13.00
2018-11-13T19:57:13.004Z,9.93
2018-11-13T19:59:40.999Z,15.73
2018-11-13T20:02:10.102Z,9.63
2018-11-13T20:04:38.168Z,14.23
2018-11-13T20:07:06.298Z,12.70
2018-11-13T20:09:34.289Z,10.50
2018-11-13T20:12:02.348Z,13.77
2018-11-13T20:14:30.338Z,12.67
2018-11-13T20:16:58.451Z,13.27
2018-11-13T20:19:26.429Z,11.57
2018-11-13T20:21:54.534Z,9.27
2018-11-13T20:24:22.561Z,13.50
2018-11-13T20:26:50.590Z,12.03
2018-11-13T20:29:18.614Z,12.57
2018-11-13T20:31:46.608Z,11.00
2018-11-13T20:34:14.673Z,12.33
2018-11-13T20:36:42.761Z,12.33
2018-11-13T20:39:12.428Z,20.83
2018-11-13T20:41:40.386Z,10.00
2018-11-13T20:44:08.481Z,12.57
2018-11-13T20:46:36.566Z,14.30
2018-11-13T20:49:04.788Z,15.90
2018-11-13T20:51:32.931Z,16.77
2018-11-13T20:54:00.886Z,11.13
2018-11-13T20:56:28.958Z,13.87
2018-11-13T20:58:57.038Z,15.60
2018-11-13T21:01:25.188Z,14.37
2018-11-13T21:03:53.269Z,9.80
2018-11-13T21:06:21.353Z,13.83
2018-11-13T21:08:49.364Z,10.80
2018-11-13T21:11:17.501Z,19.70
2018-11-13T21:13:45.729Z,16.00
2018-11-13T21:16:13.859Z,13.03
2018-11-13T21:18:41.855Z,13.90
2018-11-13T21:21:09.900Z,14.20
2018-11-13T21:23:38.002Z,15.80
2018-11-13T21:26:06.132Z,17.13
2018-11-13T21:28:34.215Z,15.43
2018-11-13T21:31:02.197Z,16.13
2018-11-13T21:33:30.328Z,19.37
2018-11-13T21:35:58.365Z,16.23
2018-11-13T21:38:26.529Z,19.13
2018-11-13T21:40:54.546Z,20.03
2018-11-13T21:43:22.593Z,16.13
2018-11-13T21:45:50.687Z,24.63
2018-11-13T21:48:18.713Z,14.93
2018-11-13T21:50:46.697Z,21.57
2018-11-13T21:53:14.749Z,13.83
2018-11-13T21:55:42.894Z,22.10
2018-11-13T21:58:10.804Z,13.67
2018-11-13T22:00:39.140Z,13.60
2018-11-13T22:03:07.960Z,13.53
2018-11-13T22:05:36.630Z,27.57
2018-11-13T22:08:04.599Z,19.03
2018-11-13T22:10:32.567Z,15.67
2018-11-13T22:13:00.549Z,21.17
2018-11-13T22:15:29.445Z,13.97
2018-11-13T22:17:57.452Z,15.90
2018-11-13T22:20:25.704Z,19.30
2018-11-13T22:22:54.999Z,17.83
2018-11-13T22:25:24.468Z,27.77
2018-11-13T22:27:53.634Z,14.67
2018-11-13T22:30:22.847Z,25.57
2018-11-13T22:32:50.837Z,32.17
2018-11-13T22:35:19.514Z,13.27
2018-11-13T22:37:47.560Z,15.37
2018-11-13T22:40:16.848Z,28.80
2018-11-13T22:42:45.022Z,28.37
2018-11-13T22:45:14.916Z,25.60
2018-11-13T22:47:43.064Z,17.40
2018-11-13T22:50:13.019Z,26.73
2018-11-13T22:52:41.590Z,17.03
2018-11-13T22:55:10.835Z,17.27
2018-11-13T22:57:38.833Z,29.17
2018-11-13T23:00:39.601Z,24.33
2018-11-13T23:03:08.984Z,22.77
2018-11-13T23:05:36.988Z,16.90
2018-11-13T23:08:05.985Z,20.77
2018-11-13T23:10:33.973Z,17.80
2018-11-13T23:13:02.121Z,14.53
2018-11-13T23:15:30.069Z,21.83
2018-11-13T23:17:58.040Z,20.90
2018-11-13T23:20:26.066Z,23.77
2018-11-13T23:22:54.175Z,13.20
2018-11-13T23:25:22.204Z,18.53
2018-11-13T23:27:51.216Z,17.57
2018-11-13T23:30:22.257Z,19.80
2018-11-13T23:32:50.584Z,20.63
2018-11-13T23:35:18.828Z,15.10
2018-11-13T23:37:48.055Z,17.53
2018-11-13T23:40:17.352Z,21.80
2018-11-13T23:42:45.910Z,20.30
2018-11-13T23:45:14.921Z,26.40
2018-11-13T23:47:43.488Z,17.63
2018-11-13T23:50:11.813Z,15.50
2018-11-13T23:52:39.876Z,19.03
2018-11-13T23:55:09.120Z,17.60
2018-11-13T23:57:37.114Z,23.50
